createdAt,value
2023-05-11T00:01:26.403Z,11.50
2023-05-11T00:03:54.111Z,11.40
2023-05-11T00:06:23.220Z,11.30
2023-05-11T00:08:51.137Z,11.30
2023-05-11T00:11:19.489Z,11.20
2023-05-11T00:13:47.157Z,11.10
2023-05-11T00:16:15.020Z,11.00
2023-05-11T00:18:42.892Z,11.00
2023-05-11T00:21:10.676Z,11.10
2023-05-11T00:23:39.716Z,11.20
2023-05-11T00:26:07.545Z,11.20
2023-05-11T00:28:35.225Z,11.00
2023-05-11T00:31:03.010Z,10.90
2023-05-11T00:33:30.781Z,10.80
2023-05-11T00:35:58.518Z,10.70
2023-05-11T00:38:26.210Z,10.70
2023-05-11T00:40:55.375Z,10.60
2023-05-11T00:43:23.097Z,10.60
2023-05-11T00:45:52.329Z,10.50
2023-05-11T00:48:20.151Z,10.40
2023-05-11T00:50:48.637Z,10.30
2023-05-11T00:53:16.599Z,10.30
2023-05-11T00:55:44.441Z,10.20
2023-05-11T00:58:13.743Z,10.40
2023-05-11T01:00:41.610Z,10.40
2023-05-11T01:03:09.518Z,10.30
2023-05-11T01:05:42.764Z,10.30
2023-05-11T01:08:16.118Z,10.20
2023-05-11T01:10:49.741Z,10.10
2023-05-11T01:13:27.628Z,9.90
2023-05-11T01:15:57.141Z,9.80
2023-05-11T01:18:29.602Z,9.80
2023-05-11T01:21:01.582Z,9.70
2023-05-11T01:24:00.977Z,9.70
2023-05-11T01:26:50.358Z,9.80
2023-05-11T01:29:45.773Z,9.80
2023-05-11T01:32:20.697Z,9.80
2023-05-11T01:34:51.426Z,9.90
2023-05-11T01:37:23.669Z,9.90
2023-05-11T01:39:54.730Z,10.00
2023-05-11T01:42:27.312Z,9.90
2023-05-11T01:44:58.151Z,9.80
2023-05-11T01:47:30.191Z,9.80
2023-05-11T01:50:00.309Z,9.80
2023-05-11T01:52:30.331Z,9.80
2023-05-11T01:55:00.216Z,9.70
2023-05-11T01:57:29.841Z,9.60
2023-05-11T01:59:58.398Z,9.50
2023-05-11T02:02:28.218Z,9.50
2023-05-11T02:04:56.755Z,9.50
2023-05-11T02:07:28.140Z,9.40
2023-05-11T02:09:57.638Z,9.30
2023-05-11T02:12:28.123Z,9.20
2023-05-11T02:14:56.754Z,9.20
2023-05-11T02:17:27.419Z,9.10
2023-05-11T02:19:57.285Z,9.10
2023-05-11T02:22:26.402Z,9.10
2023-05-11T02:24:54.199Z,9.10
2023-05-11T02:27:22.007Z,9.10
2023-05-11T02:29:49.791Z,9.10
2023-05-11T02:32:21.194Z,9.10
2023-05-11T02:34:58.804Z,9.20
2023-05-11T02:37:28.593Z,9.20
2023-05-11T02:40:00.623Z,9.30
2023-05-11T02:42:31.992Z,9.20
2023-05-11T02:45:02.422Z,9.10
2023-05-11T02:47:34.279Z,9.10
2023-05-11T02:50:07.064Z,9.10
2023-05-11T02:52:37.021Z,9.20
2023-05-11T02:55:05.960Z,9.20
2023-05-11T02:57:34.061Z,9.20
2023-05-11T03:00:02.511Z,9.20
2023-05-11T03:02:30.447Z,9.10
2023-05-11T03:04:58.257Z,9.00
2023-05-11T03:07:27.577Z,9.00
2023-05-11T03:09:55.500Z,9.10
2023-05-11T03:12:23.424Z,9.00
2023-05-11T03:14:52.540Z,9.10
2023-05-11T03:17:22.012Z,9.10
2023-05-11T03:19:50.552Z,9.10
2023-05-11T03:22:18.613Z,9.00
2023-05-11T03:24:48.313Z,9.00
2023-05-11T03:27:17.147Z,9.00
2023-05-11T03:29:46.485Z,9.00
2023-05-11T03:32:15.036Z,9.00
2023-05-11T03:34:42.824Z,9.00
2023-05-11T03:37:13.493Z,8.90
2023-05-11T03:39:44.786Z,8.90
2023-05-11T03:42:15.851Z,9.00
2023-05-11T03:44:47.192Z,9.20
2023-05-11T03:47:16.503Z,9.20
2023-05-11T03:49:44.809Z,9.20
2023-05-11T03:52:13.202Z,9.20
2023-05-11T03:54:42.059Z,9.10
2023-05-11T03:57:10.329Z,9.10
2023-05-11T03:59:40.524Z,9.10
2023-05-11T04:02:08.628Z,9.10
2023-05-11T04:04:36.623Z,9.10
2023-05-11T04:07:04.643Z,9.20
2023-05-11T04:09:32.388Z,9.30
2023-05-11T04:12:00.161Z,9.30
2023-05-11T04:14:28.131Z,9.30
2023-05-11T04:16:57.209Z,9.40
2023-05-11T04:19:24.919Z,9.50
2023-05-11T04:21:52.670Z,9.70
2023-05-11T04:24:20.581Z,9.60
2023-05-11T04:26:48.387Z,9.70
2023-05-11T04:29:16.175Z,9.70
2023-05-11T04:31:43.938Z,9.80
2023-05-11T04:34:13.178Z,9.80
2023-05-11T04:36:42.105Z,10.00
2023-05-11T04:39:09.933Z,10.00
2023-05-11T04:41:37.690Z,10.10
2023-05-11T04:44:06.036Z,10.20
2023-05-11T04:46:33.835Z,10.30
2023-05-11T04:49:01.736Z,10.60
2023-05-11T04:51:30.964Z,10.80
2023-05-11T04:53:59.035Z,10.80
2023-05-11T04:56:26.910Z,10.90
2023-05-11T04:58:54.650Z,10.90
2023-05-11T05:01:22.431Z,10.90
2023-05-11T05:03:50.952Z,11.00
2023-05-11T05:06:18.864Z,11.00
2023-05-11T05:08:47.936Z,11.10
2023-05-11T05:11:15.786Z,11.20
2023-05-11T05:13:43.740Z,11.40
2023-05-11T05:16:11.528Z,11.40
2023-05-11T05:18:39.476Z,11.50
2023-05-11T05:21:07.512Z,11.60
2023-05-11T05:23:35.300Z,11.70
2023-05-11T05:26:04.413Z,11.70
2023-05-11T05:28:32.299Z,11.80
2023-05-11T05:31:00.244Z,11.90
2023-05-11T05:33:28.174Z,12.10
2023-05-11T05:35:56.603Z,12.20
2023-05-11T05:38:24.359Z,12.40
2023-05-11T05:40:52.117Z,12.60
2023-05-11T05:43:21.184Z,12.60
2023-05-11T05:45:49.015Z,12.70
2023-05-11T05:48:16.883Z,12.90
2023-05-11T05:50:44.700Z,13.00
2023-05-11T05:53:12.447Z,13.10
2023-05-11T05:55:40.171Z,13.30
2023-05-11T05:58:08.164Z,13.40
2023-05-11T06:00:37.650Z,13.50
2023-05-11T06:03:05.587Z,13.60
2023-05-11T06:05:33.421Z,13.70
2023-05-11T06:08:09.833Z,13.80
2023-05-11T06:10:38.826Z,13.90
2023-05-11T06:13:08.381Z,14.00
2023-05-11T06:15:37.524Z,14.20
2023-05-11T06:18:05.927Z,14.30
2023-05-11T06:20:33.773Z,14.40
2023-05-11T06:23:01.625Z,14.60
2023-05-11T06:25:29.481Z,14.70
2023-05-11T06:27:57.313Z,14.80
2023-05-11T06:30:25.106Z,15.00
2023-05-11T06:32:54.303Z,15.10
2023-05-11T06:35:22.561Z,15.30
2023-05-11T06:37:50.363Z,15.30
2023-05-11T06:40:18.527Z,15.30
2023-05-11T06:42:46.408Z,15.40
2023-05-11T06:45:14.312Z,15.50
2023-05-11T06:47:42.275Z,15.60
2023-05-11T06:50:11.720Z,15.80
2023-05-11T06:52:39.445Z,15.90
2023-05-11T06:55:08.380Z,16.00
2023-05-11T06:57:36.218Z,16.20
2023-05-11T07:00:04.717Z,16.30
2023-05-11T07:02:32.865Z,16.40
2023-05-11T07:05:00.727Z,16.50
2023-05-11T07:07:29.912Z,16.70
2023-05-11T07:09:57.775Z,16.80
2023-05-11T07:12:25.676Z,17.00
2023-05-11T07:14:53.651Z,17.20
2023-05-11T07:17:21.448Z,17.30
2023-05-11T07:19:51.235Z,17.50
2023-05-11T07:22:19.518Z,17.60
2023-05-11T07:24:48.561Z,17.90
2023-05-11T07:27:16.400Z,18.00
2023-05-11T07:29:44.392Z,18.20
2023-05-11T07:32:12.248Z,18.20
2023-05-11T07:34:41.109Z,18.30
2023-05-11T07:37:09.128Z,18.60
2023-05-11T07:39:37.167Z,18.80
2023-05-11T07:42:06.516Z,19.00
2023-05-11T07:44:34.215Z,19.30
2023-05-11T07:47:02.659Z,19.50
2023-05-11T07:49:42.534Z,19.70
2023-05-11T07:52:11.700Z,19.90
2023-05-11T07:54:40.330Z,20.00
2023-05-11T07:57:11.276Z,20.10
2023-05-11T07:59:39.084Z,20.40
2023-05-11T08:02:09.471Z,20.60
2023-05-11T08:04:38.610Z,21.00
2023-05-11T08:07:06.428Z,21.90
2023-05-11T08:09:34.155Z,22.80
2023-05-11T08:12:02.438Z,23.20
2023-05-11T08:14:32.247Z,23.30
2023-05-11T08:16:59.970Z,23.20
2023-05-11T08:19:27.713Z,22.90
2023-05-11T08:21:55.448Z,22.80
2023-05-11T08:24:23.260Z,23.10
2023-05-11T08:26:51.121Z,24.00
2023-05-11T08:29:18.827Z,24.90
2023-05-11T08:31:47.965Z,25.20
2023-05-11T08:34:19.798Z,25.80
2023-05-11T08:36:47.991Z,27.20
2023-05-11T08:39:21.580Z,28.70
2023-05-11T08:42:05.410Z,30.70
2023-05-11T08:44:34.587Z,32.40
2023-05-11T08:47:21.140Z,33.70
2023-05-11T08:49:51.135Z,34.10
2023-05-11T08:52:19.959Z,34.80
2023-05-11T08:54:47.948Z,34.60
2023-05-11T08:57:16.685Z,35.00
2023-05-11T08:59:46.507Z,35.00
2023-05-11T09:02:18.829Z,35.00
2023-05-11T09:04:48.991Z,36.30
2023-05-11T09:07:17.924Z,38.10
2023-05-11T09:09:46.964Z,38.20
2023-05-11T09:12:14.883Z,37.10
2023-05-11T09:14:42.848Z,35.90
2023-05-11T09:17:10.830Z,35.60
2023-05-11T09:19:59.070Z,36.20
2023-05-11T09:22:28.503Z,36.40
2023-05-11T09:24:58.798Z,36.80
2023-05-11T09:27:26.669Z,36.80
2023-05-11T09:29:55.399Z,37.70
2023-05-11T09:32:23.371Z,37.90
2023-05-11T09:34:52.527Z,37.10
2023-05-11T09:37:20.925Z,35.80
2023-05-11T09:40:33.241Z,36.50
2023-05-11T09:42:43.314Z,36.50
2023-05-11T09:45:11.851Z,36.00
2023-05-11T09:47:40.801Z,34.90
2023-05-11T09:50:25.825Z,34.20
2023-05-11T09:52:54.232Z,34.50
2023-05-11T09:55:22.022Z,34.90
2023-05-11T09:57:55.702Z,34.90
2023-05-11T10:00:25.224Z,35.00
2023-05-11T10:03:03.710Z,33.90
2023-05-11T10:05:34.401Z,34.90
2023-05-11T10:08:04.009Z,36.50
2023-05-11T10:10:33.461Z,37.10
2023-05-11T10:13:03.792Z,36.40
2023-05-11T10:15:36.640Z,36.20
2023-05-11T10:18:04.688Z,35.60
2023-05-11T10:20:34.546Z,34.30
2023-05-11T10:23:02.753Z,32.50
2023-05-11T10:25:30.533Z,32.00
2023-05-11T10:27:58.892Z,32.30
2023-05-11T10:30:27.090Z,32.00
2023-05-11T10:32:56.689Z,32.50
2023-05-11T10:35:24.732Z,32.40
2023-05-11T10:37:53.928Z,30.60
2023-05-11T10:40:21.931Z,28.50
2023-05-11T10:43:21.730Z,28.10
2023-05-11T10:45:57.378Z,28.00
2023-05-11T10:48:56.664Z,26.20
2023-05-11T10:51:37.277Z,26.00
2023-05-11T10:54:22.729Z,29.20
2023-05-11T10:57:10.033Z,29.00
2023-05-11T11:00:10.982Z,27.60
2023-05-11T11:02:39.209Z,29.10
2023-05-11T11:05:10.629Z,30.00
2023-05-11T11:08:00.072Z,31.00
2023-05-11T11:10:34.454Z,30.60
2023-05-11T11:13:06.833Z,28.60
2023-05-11T11:16:08.972Z,26.40
2023-05-11T11:18:37.067Z,25.30
2023-05-11T11:21:05.380Z,24.40
2023-05-11T11:23:43.462Z,23.70
2023-05-11T11:26:15.325Z,23.60
2023-05-11T11:29:11.632Z,23.20
2023-05-11T11:31:39.963Z,23.40
2023-05-11T11:34:33.274Z,23.50
2023-05-11T11:37:04.926Z,23.80
2023-05-11T11:40:13.040Z,24.00
2023-05-11T11:42:44.278Z,24.30
2023-05-11T11:45:33.248Z,24.60
2023-05-11T11:48:14.845Z,25.00
2023-05-11T11:50:47.222Z,25.00
2023-05-11T11:54:06.824Z,25.30
2023-05-11T11:56:44.975Z,25.80
2023-05-11T11:59:16.019Z,26.50
2023-05-11T12:01:45.932Z,26.70
2023-05-11T12:04:43.951Z,26.70
2023-05-11T12:07:12.159Z,26.50
2023-05-11T12:09:42.068Z,26.30
2023-05-11T12:12:10.772Z,26.00
2023-05-11T12:14:40.811Z,26.30
2023-05-11T12:17:15.359Z,26.20
2023-05-11T12:19:45.072Z,25.90
2023-05-11T12:22:14.840Z,25.90
2023-05-11T12:24:43.735Z,25.30
2023-05-11T12:27:11.677Z,24.90
2023-05-11T12:29:41.424Z,24.60
2023-05-11T12:32:14.019Z,24.40
2023-05-11T12:34:42.085Z,24.00
2023-05-11T12:37:09.912Z,23.60
2023-05-11T12:39:39.662Z,23.60
2023-05-11T12:42:07.792Z,23.70
2023-05-11T12:44:36.366Z,23.90
2023-05-11T12:47:08.950Z,23.90
2023-05-11T12:49:36.853Z,23.80
2023-05-11T12:52:08.867Z,23.30
2023-05-11T12:54:38.594Z,23.10
2023-05-11T12:57:08.026Z,23.10
2023-05-11T12:59:37.455Z,22.90
2023-05-11T13:02:18.082Z,22.70
2023-05-11T13:04:47.401Z,22.80
2023-05-11T13:07:24.928Z,22.70
2023-05-11T13:09:57.868Z,22.60
2023-05-11T13:12:26.223Z,22.50
2023-05-11T13:15:06.928Z,22.30
2023-05-11T13:17:37.538Z,22.10
2023-05-11T13:20:22.302Z,22.10
2023-05-11T13:22:51.216Z,22.00
2023-05-11T13:25:21.629Z,22.20
2023-05-11T13:27:49.719Z,22.20
2023-05-11T13:30:17.544Z,22.40
2023-05-11T13:32:46.800Z,22.50
2023-05-11T13:35:14.692Z,22.50
2023-05-11T13:37:46.645Z,22.60
2023-05-11T13:40:14.917Z,22.80
2023-05-11T13:42:43.449Z,22.90
2023-05-11T13:45:12.196Z,22.90
2023-05-11T13:47:40.183Z,23.00
2023-05-11T13:50:10.613Z,23.00
2023-05-11T13:52:40.382Z,23.00
2023-05-11T13:55:09.265Z,22.90
2023-05-11T13:57:37.065Z,22.80
2023-05-11T14:00:05.746Z,22.80
2023-05-11T14:02:33.759Z,22.70
2023-05-11T14:05:01.761Z,22.70
2023-05-11T14:07:45.703Z,22.60
2023-05-11T14:10:15.504Z,22.80
2023-05-11T14:12:43.435Z,23.00
2023-05-11T14:15:11.839Z,23.40
2023-05-11T14:17:42.712Z,23.70
2023-05-11T14:20:12.023Z,24.00
2023-05-11T14:22:41.416Z,24.30
2023-05-11T14:25:10.018Z,24.50
2023-05-11T14:27:37.773Z,24.60
2023-05-11T14:30:06.727Z,24.50
2023-05-11T14:32:34.652Z,24.40
2023-05-11T14:35:02.513Z,24.30
2023-05-11T14:37:30.557Z,24.00
2023-05-11T14:39:59.855Z,23.90
2023-05-11T14:42:29.437Z,23.70
2023-05-11T14:44:57.196Z,23.80
2023-05-11T14:47:25.154Z,23.80
2023-05-11T14:49:53.149Z,23.80
2023-05-11T14:52:21.080Z,23.80
2023-05-11T14:54:49.421Z,23.90
2023-05-11T14:57:18.879Z,24.00
2023-05-11T14:59:58.392Z,24.00
2023-05-11T15:02:27.367Z,23.90
2023-05-11T15:04:55.641Z,23.70
2023-05-11T15:07:23.384Z,23.50
2023-05-11T15:09:51.247Z,23.50
2023-05-11T15:12:20.358Z,23.50
2023-05-11T15:14:48.226Z,23.50
2023-05-11T15:17:16.158Z,23.40
2023-05-11T15:19:44.004Z,23.40
2023-05-11T15:22:11.841Z,23.20
2023-05-11T15:24:39.737Z,23.00
2023-05-11T15:27:08.348Z,22.70
2023-05-11T15:29:37.539Z,22.70
2023-05-11T15:34:59.231Z,22.50
2023-05-11T15:37:27.985Z,22.60
2023-05-11T15:39:56.005Z,22.50
2023-05-11T15:42:23.885Z,22.30
2023-05-11T15:44:52.986Z,22.10
2023-05-11T15:47:20.971Z,22.10
2023-05-11T15:49:49.146Z,22.10
2023-05-11T15:52:17.110Z,22.00
2023-05-11T15:54:44.986Z,21.90
2023-05-11T15:57:12.783Z,21.90
2023-05-11T15:59:41.083Z,21.90
2023-05-11T16:02:10.239Z,22.00
2023-05-11T16:04:38.147Z,22.00
2023-05-11T16:07:06.060Z,22.00
2023-05-11T16:09:33.947Z,21.90
2023-05-11T16:12:02.003Z,21.90
2023-05-11T16:14:29.804Z,21.90
2023-05-11T16:16:57.760Z,21.90
2023-05-11T16:19:30.480Z,21.70
2023-05-11T16:21:58.513Z,21.60
2023-05-11T16:24:26.947Z,21.60
2023-05-11T16:26:54.700Z,21.60
2023-05-11T16:29:22.550Z,21.40
2023-05-11T16:31:50.382Z,21.20
2023-05-11T16:34:21.244Z,21.20
2023-05-11T16:36:50.548Z,21.10
2023-05-11T16:39:18.410Z,21.10
2023-05-11T16:41:46.300Z,21.00
2023-05-11T16:44:14.432Z,21.00
2023-05-11T16:46:42.732Z,20.90
2023-05-11T16:49:10.880Z,20.90
2023-05-11T16:51:38.814Z,20.80
2023-05-11T16:54:11.625Z,20.70
2023-05-11T16:56:39.753Z,20.70
2023-05-11T16:59:08.805Z,20.70
2023-05-11T17:01:36.886Z,20.80
2023-05-11T17:04:05.218Z,20.70
2023-05-11T17:06:33.800Z,20.60
2023-05-11T17:09:01.993Z,20.60
2023-05-11T17:11:31.844Z,20.50
2023-05-11T17:13:59.833Z,20.40
2023-05-11T17:16:28.397Z,20.30
2023-05-11T17:37:57.918Z,19.80
2023-05-11T17:40:26.577Z,19.80
2023-05-11T17:42:55.670Z,19.70
2023-05-11T17:49:09.472Z,19.50
2023-05-11T17:51:37.655Z,19.50
2023-05-11T17:54:08.144Z,19.40
2023-05-11T17:56:36.871Z,19.30
2023-05-11T17:59:04.926Z,19.10
2023-05-11T18:01:34.016Z,19.10
2023-05-11T18:04:03.327Z,18.90
2023-05-11T18:06:31.462Z,18.90
2023-05-11T18:09:00.135Z,18.80
2023-05-11T18:11:29.557Z,18.70
2023-05-11T18:13:57.601Z,18.60
2023-05-11T18:16:26.386Z,18.40
2023-05-11T18:18:55.316Z,18.40
2023-05-11T18:21:23.497Z,18.30
2023-05-11T18:23:51.696Z,18.20
2023-05-11T18:26:20.212Z,18.20
2023-05-11T18:28:49.642Z,18.10
2023-05-11T18:31:19.097Z,18.00
2023-05-11T18:33:47.473Z,18.00
2023-05-11T18:36:15.966Z,18.00
2023-05-11T18:38:44.667Z,17.90
2023-05-11T18:41:16.671Z,17.90
2023-05-11T18:43:45.054Z,17.90
2023-05-11T18:46:14.386Z,18.00
2023-05-11T20:20:16.610Z,15.70
2023-05-11T21:10:48.573Z,15.30
2023-05-11T21:13:18.582Z,15.40
2023-05-11T21:15:47.095Z,15.40
2023-05-11T21:18:14.928Z,15.30
2023-05-11T21:20:43.683Z,15.30
2023-05-11T21:23:11.488Z,15.30
2023-05-11T21:25:39.229Z,15.20
2023-05-11T21:28:06.977Z,15.20
2023-05-11T21:30:36.008Z,15.20
2023-05-11T21:33:03.821Z,15.20
2023-05-11T21:35:31.575Z,15.20
2023-05-11T21:37:59.280Z,15.20
2023-05-11T21:40:27.379Z,15.20
2023-05-11T21:42:55.158Z,15.10
2023-05-11T21:45:23.485Z,15.10
2023-05-11T21:47:53.033Z,15.00
2023-05-11T21:50:26.126Z,15.00
2023-05-11T21:52:56.783Z,15.00
2023-05-11T21:55:24.949Z,15.00
2023-05-11T21:57:53.406Z,15.00
2023-05-11T22:00:22.769Z,15.00
2023-05-11T22:02:52.280Z,15.00
2023-05-11T22:05:20.688Z,14.90
2023-05-11T22:07:48.432Z,14.90
2023-05-11T22:10:16.292Z,14.80
2023-05-11T22:12:44.281Z,14.80
2023-05-11T22:15:12.968Z,14.70
2023-05-11T22:17:40.690Z,14.70
2023-05-11T22:20:10.982Z,14.70
2023-05-11T22:22:38.763Z,14.70
2023-05-11T22:25:07.261Z,14.50
2023-05-11T22:27:35.044Z,14.60
2023-05-11T22:30:02.828Z,14.60
2023-05-11T22:32:31.599Z,14.60
2023-05-11T22:35:00.501Z,14.50
2023-05-11T22:37:29.664Z,14.50
2023-05-11T22:39:57.371Z,14.40
2023-05-11T22:42:25.074Z,14.40
2023-05-11T22:44:52.906Z,14.30
2023-05-11T22:47:21.026Z,14.30
2023-05-11T22:49:48.822Z,14.30
2023-05-11T22:52:17.730Z,14.20
2023-05-11T22:54:46.794Z,14.20
2023-05-11T22:57:17.055Z,14.10
2023-05-11T22:59:46.667Z,14.00
2023-05-11T23:02:14.551Z,14.10
2023-05-11T23:04:42.429Z,14.00
2023-05-11T23:07:12.743Z,14.10
2023-05-11T23:09:40.546Z,14.00
2023-05-11T23:12:10.144Z,14.10
2023-05-11T23:14:37.877Z,14.00
2023-05-11T23:17:05.965Z,14.00
2023-05-11T23:19:33.746Z,13.90
2023-05-11T23:22:01.700Z,13.90
2023-05-11T23:24:29.817Z,13.80
2023-05-11T23:26:57.528Z,13.80
2023-05-11T23:29:27.159Z,13.80
2023-05-11T23:31:55.839Z,13.70
2023-05-11T23:34:23.775Z,13.70
2023-05-11T23:36:51.505Z,13.60
2023-05-11T23:39:19.247Z,13.70
2023-05-11T23:41:47.053Z,13.60
2023-05-11T23:44:14.754Z,13.60
2023-05-11T23:46:43.951Z,13.60
2023-05-11T23:49:11.779Z,13.60
2023-05-11T23:51:39.487Z,13.60
2023-05-11T23:54:07.234Z,13.60
2023-05-11T23:56:35.128Z,13.60
2023-05-11T23:59:03.693Z,13.60
